Time;durP1;ratioP1;P1;durP2;ratioP2;P2;SDS_P1;SDS_P2;PMS_P1;PMS_P2;Temp;Humidity;BMP_temperature;BMP_pressure;BME280_temperature;BME280_humidity;BME280_pressure;Samples;Min_cycle;Max_cycle;Signal;HPM_P1;HPM_P2
2022/04/20 00:00:31;;;;;;;6.50;3.63;;;8.20;82.60;;;;;;5025605;28;20458;-67
2022/04/20 00:02:57;;;;;;;5.50;3.28;;;8.20;82.50;;;;;;5023680;28;20112;-67
2022/04/20 00:05:22;;;;;;;6.50;3.40;;;8.20;82.60;;;;;;5024853;28;20042;-67
2022/04/20 00:07:48;;;;;;;5.85;3.47;;;8.10;82.10;;;;;;5025668;28;20064;-67
2022/04/20 00:10:14;;;;;;;5.38;3.78;;;8.10;82.20;;;;;;5027834;28;20042;-66
2022/04/20 00:12:40;;;;;;;4.03;3.55;;;8.10;82.20;;;;;;5024957;28;20044;-67
2022/04/20 00:15:06;;;;;;;6.35;3.97;;;8.00;82.20;;;;;;5027118;28;20379;-67
2022/04/20 00:17:32;;;;;;;5.97;3.20;;;8.00;82.30;;;;;;5025031;28;20041;-67
2022/04/20 00:19:58;;;;;;;4.82;3.08;;;8.00;82.40;;;;;;5027008;28;20041;-66
2022/04/20 00:22:24;;;;;;;5.28;3.40;;;8.00;82.50;;;;;;5030412;28;20117;-67
2022/04/20 00:24:50;;;;;;;5.53;3.53;;;8.00;82.90;;;;;;5024369;28;20029;-67
2022/04/20 00:27:15;;;;;;;4.40;3.40;;;7.90;82.80;;;;;;5024001;28;20033;-67
2022/04/20 00:29:41;;;;;;;6.00;4.00;;;7.90;83.00;;;;;;5025052;28;20506;-67
2022/04/20 00:32:08;;;;;;;4.15;3.60;;;7.80;83.10;;;;;;5025891;28;20045;-66
2022/04/20 00:34:33;;;;;;;5.38;4.32;;;7.80;83.10;;;;;;5025049;28;20142;-66
2022/04/20 00:36:59;;;;;;;5.40;3.58;;;7.80;83.10;;;;;;5022140;28;20069;-66
2022/04/20 00:39:25;;;;;;;6.97;3.45;;;7.80;83.60;;;;;;5026896;28;20107;-67
2022/04/20 00:41:52;;;;;;;6.97;4.22;;;7.70;83.70;;;;;;5024988;28;20029;-71
2022/04/20 00:44:19;;;;;;;6.70;3.75;;;7.70;83.90;;;;;;5025047;28;20053;-67
2022/04/20 00:46:47;;;;;;;6.22;3.72;;;7.60;84.00;;;;;;5025597;28;20041;-67
2022/04/20 00:49:14;;;;;;;7.78;4.45;;;7.70;84.30;;;;;;5025508;28;20057;-67
2022/04/20 00:51:54;;;;;;;7.10;4.25;;;7.60;84.40;;;;;;5023143;28;20056;-66
2022/04/20 00:54:20;;;;;;;7.13;3.97;;;7.60;85.00;;;;;;5025678;28;20504;-67
2022/04/20 00:56:46;;;;;;;5.60;4.15;;;7.50;85.30;;;;;;5022489;28;20087;-67
2022/04/20 00:59:14;;;;;;;5.90;4.05;;;7.50;85.30;;;;;;5024372;28;20048;-67
2022/04/20 01:01:40;;;;;;;8.73;5.00;;;7.60;85.80;;;;;;5024025;28;20144;-67
2022/04/20 01:04:05;;;;;;;5.70;4.05;;;7.50;85.80;;;;;;5026859;28;20132;-66
2022/04/20 01:06:31;;;;;;;7.07;4.28;;;7.50;85.80;;;;;;5022210;28;20045;-66
2022/04/20 01:08:57;;;;;;;7.05;4.13;;;7.50;85.70;;;;;;5025462;28;20480;-67
2022/04/20 01:11:23;;;;;;;7.38;4.20;;;7.40;86.00;;;;;;5024363;28;20065;-67
2022/04/20 01:13:49;;;;;;;8.80;3.92;;;7.30;86.20;;;;;;5023331;28;20038;-67
2022/04/20 01:16:14;;;;;;;6.03;4.38;;;7.40;86.60;;;;;;5024366;28;20064;-67
2022/04/20 01:18:43;;;;;;;5.85;4.15;;;7.40;86.90;;;;;;5023844;28;20048;-67
2022/04/20 01:21:10;;;;;;;5.65;3.90;;;7.30;86.60;;;;;;5025795;28;20033;-67
2022/04/20 01:23:37;;;;;;;6.57;4.65;;;7.30;86.90;;;;;;5023720;28;20057;-66
2022/04/20 01:26:09;;;;;;;8.02;4.93;;;7.30;87.20;;;;;;5024473;28;20037;-67
2022/04/20 01:28:41;;;;;;;7.25;4.47;;;7.30;87.20;;;;;;5024433;28;20045;-66
2022/04/20 01:31:08;;;;;;;8.48;4.20;;;7.30;87.60;;;;;;5024123;28;20037;-67
2022/04/20 01:33:34;;;;;;;8.52;4.60;;;7.20;87.80;;;;;;5018396;28;20099;-66
2022/04/20 01:35:59;;;;;;;6.72;4.55;;;7.20;88.10;;;;;;5024074;28;20076;-67
2022/04/20 01:38:26;;;;;;;9.57;4.22;;;7.10;88.20;;;;;;5024314;28;20516;-66
2022/04/20 01:40:52;;;;;;;7.63;4.10;;;7.10;88.50;;;;;;5006573;28;20049;-67
2022/04/20 01:43:18;;;;;;;7.72;4.50;;;7.20;88.60;;;;;;5023320;28;20045;-67
2022/04/20 01:45:44;;;;;;;8.65;4.85;;;7.10;88.60;;;;;;5024446;28;20045;-66
2022/04/20 01:48:09;;;;;;;8.55;4.85;;;7.10;88.90;;;;;;5025048;28;20052;-67
2022/04/20 01:51:46;;;;;;;6.00;4.38;;;7.00;88.70;;;;;;5024048;28;20124;-67
2022/04/20 01:53:21;;;;;;;6.88;4.80;;;7.00;89.30;;;;;;5024992;28;20045;-67
2022/04/20 01:55:47;;;;;;;7.53;4.20;;;7.00;89.40;;;;;;5025731;28;20497;-67
2022/04/20 01:58:12;;;;;;;6.50;4.70;;;6.90;89.80;;;;;;5023628;28;20052;-67
2022/04/20 02:00:38;;;;;;;6.57;4.47;;;6.90;90.00;;;;;;5025143;28;20065;-67
2022/04/20 02:03:04;;;;;;;6.07;4.53;;;6.90;90.30;;;;;;5023005;28;20041;-67
2022/04/20 02:05:30;;;;;;;6.65;4.47;;;6.90;90.50;;;;;;5025018;28;20049;-68
2022/04/20 02:07:57;;;;;;;6.72;4.95;;;6.90;90.50;;;;;;5024178;28;20046;-67
2022/04/20 02:10:23;;;;;;;7.60;4.65;;;6.90;90.70;;;;;;5025524;28;20397;-67
2022/04/20 02:12:48;;;;;;;7.15;5.22;;;6.80;90.70;;;;;;5029167;28;20033;-66
2022/04/20 02:15:14;;;;;;;7.65;4.32;;;6.80;90.70;;;;;;5028197;28;22025;-67
2022/04/20 02:17:40;;;;;;;5.65;4.60;;;6.80;91.00;;;;;;5026654;28;20413;-66
2022/04/20 02:20:06;;;;;;;7.63;4.70;;;6.70;91.00;;;;;;5028060;28;20040;-66
2022/04/20 02:22:32;;;;;;;6.03;4.63;;;6.80;90.80;;;;;;5026328;28;20432;-67
2022/04/20 02:24:59;;;;;;;8.45;4.90;;;6.70;90.80;;;;;;5027146;28;20037;-66
2022/04/20 02:27:26;;;;;;;8.18;4.78;;;6.70;91.20;;;;;;5028172;28;20456;-67
2022/04/20 02:29:52;;;;;;;5.97;5.13;;;6.70;91.30;;;;;;5026380;28;20048;-67
2022/04/20 02:32:17;;;;;;;6.25;4.85;;;6.60;91.30;;;;;;5028277;28;20025;-66
2022/04/20 02:34:43;;;;;;;5.55;4.53;;;6.60;91.30;;;;;;5027883;28;20132;-67
2022/04/20 02:37:09;;;;;;;8.02;4.57;;;6.60;91.10;;;;;;5028506;28;20054;-67
2022/04/20 02:39:36;;;;;;;7.22;5.00;;;6.60;91.00;;;;;;5024889;28;20041;-66
2022/04/20 02:42:04;;;;;;;8.10;4.63;;;6.60;91.10;;;;;;5023696;28;20037;-67
2022/04/20 02:44:30;;;;;;;8.98;5.75;;;6.50;91.60;;;;;;5027583;28;20080;-67
2022/04/20 02:46:55;;;;;;;10.00;6.25;;;6.50;91.70;;;;;;5027311;28;20053;-67
2022/04/20 02:49:21;;;;;;;8.45;5.00;;;6.50;91.80;;;;;;5023674;28;20041;-67
2022/04/20 02:51:47;;;;;;;8.02;5.60;;;6.50;91.80;;;;;;5029490;28;20037;-67
2022/04/20 02:54:12;;;;;;;8.40;5.28;;;6.40;92.10;;;;;;5027807;28;20045;-67
2022/04/20 02:56:38;;;;;;;6.32;4.85;;;6.40;92.10;;;;;;5029374;28;20489;-67
2022/04/20 02:59:04;;;;;;;7.75;4.85;;;6.40;92.10;;;;;;5027720;28;20041;-67
2022/04/20 03:01:30;;;;;;;5.88;4.50;;;6.40;92.30;;;;;;5027059;28;20071;-67
2022/04/20 03:03:58;;;;;;;9.18;4.80;;;6.40;92.10;;;;;;5027684;28;20033;-67
2022/04/20 03:06:23;;;;;;;7.75;4.78;;;6.40;92.30;;;;;;5028501;28;20052;-67
2022/04/20 03:08:49;;;;;;;5.70;4.50;;;6.40;92.50;;;;;;5024719;28;20042;-67
2022/04/20 03:11:15;;;;;;;8.18;5.80;;;6.40;92.30;;;;;;5025344;28;20042;-67
2022/04/20 03:13:40;;;;;;;6.13;4.90;;;6.30;92.00;;;;;;5026046;28;20052;-67
2022/04/20 03:16:06;;;;;;;6.50;4.82;;;6.30;92.20;;;;;;5027606;28;20040;-67
2022/04/20 03:18:32;;;;;;;9.27;5.82;;;6.30;92.00;;;;;;5026686;28;20045;-67
2022/04/20 03:21:01;;;;;;;8.13;4.60;;;6.30;92.70;;;;;;5030739;28;20088;-67
2022/04/20 03:23:28;;;;;;;10.57;5.70;;;6.30;92.40;;;;;;5029781;28;20041;-67
2022/04/20 03:25:54;;;;;;;8.35;5.05;;;6.20;92.60;;;;;;5024402;28;20057;-67
2022/04/20 03:28:20;;;;;;;7.88;5.32;;;6.20;92.60;;;;;;5026296;28;20044;-67
2022/04/20 03:30:47;;;;;;;6.75;4.57;;;6.20;92.30;;;;;;5025894;28;20103;-67
2022/04/20 03:33:13;;;;;;;6.90;4.75;;;6.10;92.10;;;;;;5028124;28;20493;-67
2022/04/20 03:35:38;;;;;;;8.63;5.20;;;6.10;92.10;;;;;;5032160;28;20052;-67
2022/04/20 03:38:08;;;;;;;7.72;5.13;;;6.10;92.50;;;;;;5028810;28;20054;-67
2022/04/20 03:40:35;;;;;;;6.90;4.85;;;6.00;92.80;;;;;;5026145;28;20076;-67
2022/04/20 03:43:01;;;;;;;7.15;4.95;;;6.00;92.80;;;;;;5030129;28;20029;-67
2022/04/20 03:45:27;;;;;;;5.90;4.82;;;6.00;92.70;;;;;;5029048;28;20038;-67
2022/04/20 03:47:53;;;;;;;6.93;5.10;;;6.00;92.50;;;;;;5029002;28;20037;-67
2022/04/20 03:50:19;;;;;;;7.95;5.40;;;5.90;92.40;;;;;;5030809;28;20037;-67
2022/04/20 03:52:45;;;;;;;8.50;5.18;;;5.90;92.60;;;;;;5030297;28;20037;-68
2022/04/20 03:55:11;;;;;;;7.85;5.40;;;5.80;92.80;;;;;;5030155;28;20041;-66
2022/04/20 03:57:36;;;;;;;7.88;5.20;;;5.80;93.20;;;;;;5031543;28;20041;-67
2022/04/20 04:00:04;;;;;;;9.60;5.32;;;5.80;93.50;;;;;;5029820;28;20033;-67
2022/04/20 04:02:30;;;;;;;8.07;5.53;;;5.80;93.20;;;;;;5007734;28;20120;-66
2022/04/20 04:04:56;;;;;;;9.02;5.57;;;5.80;93.90;;;;;;5031607;28;20125;-66
2022/04/20 04:07:22;;;;;;;6.70;5.10;;;5.80;94.40;;;;;;5031395;28;20385;-66
2022/04/20 04:09:48;;;;;;;7.18;5.30;;;5.80;94.90;;;;;;5029072;28;20079;-66
2022/04/20 04:12:14;;;;;;;6.70;5.03;;;5.80;94.80;;;;;;5026880;28;20450;-67
2022/04/20 04:14:40;;;;;;;8.23;5.53;;;5.80;95.10;;;;;;5029859;28;20556;-66
2022/04/20 04:17:06;;;;;;;8.65;5.75;;;5.80;95.20;;;;;;5030448;28;20045;-66
2022/04/20 04:19:34;;;;;;;7.68;5.40;;;5.90;95.00;;;;;;5029343;28;20038;-67
2022/04/20 04:22:01;;;;;;;6.60;5.60;;;5.90;94.90;;;;;;5028621;28;20551;-66
2022/04/20 04:24:36;;;;;;;7.82;5.43;;;5.90;94.90;;;;;;5029857;28;20539;-66
2022/04/20 04:27:08;;;;;;;;;;;5.90;94.80;;;;;;5031661;28;20202;-67
2022/04/20 04:29:34;;;;;;;7.88;5.20;;;5.90;94.90;;;;;;5029501;28;19928;-66
2022/04/20 04:32:00;;;;;;;7.28;5.43;;;5.80;94.40;;;;;;5031387;28;20075;-66
2022/04/20 04:34:26;;;;;;;7.68;5.70;;;5.80;94.60;;;;;;5028497;28;20460;-66
2022/04/20 04:36:54;;;;;;;8.45;5.68;;;5.80;94.80;;;;;;5025929;28;20041;-66
2022/04/20 04:39:21;;;;;;;7.78;5.28;;;5.80;94.60;;;;;;5027107;28;20099;-66
2022/04/20 04:41:50;;;;;;;8.23;5.30;;;5.70;94.60;;;;;;5030220;28;20045;-67
2022/04/20 04:44:18;;;;;;;6.95;5.35;;;5.70;95.20;;;;;;5030160;28;20094;-66
2022/04/20 04:49:28;;;;;;;6.73;5.23;;;5.60;95.20;;;;;;5029579;28;20060;-66
2022/04/20 04:51:58;;;;;;;7.43;5.38;;;5.70;95.20;;;;;;5013592;28;20057;-67
2022/04/20 04:54:23;;;;;;;7.82;5.85;;;5.70;95.40;;;;;;5027030;28;20033;-67
2022/04/20 04:56:49;;;;;;;7.85;5.53;;;5.70;95.70;;;;;;5031598;28;20148;-67
2022/04/20 04:59:16;;;;;;;7.22;6.28;;;5.70;95.50;;;;;;5030827;28;20037;-67
2022/04/20 05:01:42;;;;;;;8.63;5.72;;;5.70;95.50;;;;;;5029957;28;20516;-67
2022/04/20 05:04:07;;;;;;;7.18;5.97;;;5.70;96.00;;;;;;5028908;28;20125;-67
2022/04/20 05:06:33;;;;;;;9.30;5.60;;;5.70;95.80;;;;;;5028946;28;20057;-67
2022/04/20 05:08:59;;;;;;;7.80;5.60;;;5.80;96.00;;;;;;5027774;28;20133;-67
2022/04/20 05:11:25;;;;;;;7.00;4.90;;;5.80;96.20;;;;;;5029923;28;20059;-67
2022/04/20 05:13:50;;;;;;;6.90;5.25;;;5.80;95.90;;;;;;5029537;28;20124;-67
2022/04/20 05:16:16;;;;;;;6.03;4.97;;;5.80;95.90;;;;;;5029066;28;20057;-67
2022/04/20 05:18:41;;;;;;;7.32;5.03;;;5.90;95.80;;;;;;5029673;28;20099;-67
2022/04/20 05:21:07;;;;;;;6.95;5.20;;;5.90;95.70;;;;;;5028978;28;20564;-67
2022/04/20 05:23:33;;;;;;;7.57;5.30;;;6.00;95.50;;;;;;5025429;28;20072;-67
2022/04/20 05:25:59;;;;;;;8.50;4.88;;;6.00;95.50;;;;;;5027533;28;20038;-67
2022/04/20 05:28:24;;;;;;;7.25;4.70;;;6.30;95.60;;;;;;5029441;28;20033;-67
2022/04/20 05:30:50;;;;;;;9.70;5.18;;;6.20;95.60;;;;;;5032118;28;20143;-67
2022/04/20 05:33:16;;;;;;;9.98;4.15;;;6.30;95.40;;;;;;5025433;28;20048;-67
2022/04/20 05:35:41;;;;;;;6.22;5.10;;;6.40;94.90;;;;;;5028177;28;21416;-67
2022/04/20 05:43:36;;;;;;;7.00;4.80;;;7.00;93.60;;;;;;5027622;28;20284;-67
2022/04/20 05:46:03;;;;;;;6.55;4.45;;;7.10;92.90;;;;;;5032547;28;20037;-67
2022/04/20 05:48:28;;;;;;;5.43;4.47;;;7.40;92.70;;;;;;5032734;28;20419;-67
2022/04/20 05:50:54;;;;;;;6.57;4.50;;;7.70;92.60;;;;;;5033801;28;20041;-67
2022/04/20 05:53:20;;;;;;;5.78;4.25;;;8.00;91.70;;;;;;5032112;28;20084;-67
2022/04/20 05:55:46;;;;;;;6.40;4.50;;;8.00;91.40;;;;;;5033994;28;20044;-67
2022/04/20 05:58:11;;;;;;;6.75;4.57;;;7.90;91.40;;;;;;5030985;28;20060;-67
2022/04/20 06:00:37;;;;;;;5.30;4.30;;;7.70;91.40;;;;;;5016657;28;20077;-68
2022/04/20 06:03:03;;;;;;;7.65;4.80;;;7.70;91.90;;;;;;5031311;28;20606;-68
2022/04/20 06:05:29;;;;;;;7.15;5.05;;;7.70;92.20;;;;;;5034516;28;20041;-67
2022/04/20 06:07:55;;;;;;;5.00;4.10;;;7.70;92.20;;;;;;5032929;28;20049;-67
2022/04/20 06:10:21;;;;;;;8.15;4.90;;;7.70;92.00;;;;;;5032800;28;20499;-68
2022/04/20 06:12:47;;;;;;;7.00;4.78;;;7.80;92.10;;;;;;5031969;28;20096;-67
2022/04/20 06:15:13;;;;;;;7.00;4.55;;;7.90;92.20;;;;;;5033054;28;20073;-67
2022/04/20 06:17:39;;;;;;;6.10;4.32;;;8.00;92.10;;;;;;5030510;28;20136;-67
2022/04/20 06:20:05;;;;;;;4.53;3.75;;;8.10;92.50;;;;;;5032906;28;20450;-67
2022/04/20 06:22:31;;;;;;;5.80;3.63;;;8.10;91.60;;;;;;5032304;28;20041;-67
2022/04/20 06:24:57;;;;;;;6.35;4.07;;;8.20;91.30;;;;;;5014993;28;20106;-67
2022/04/20 06:27:32;;;;;;;6.68;4.13;;;8.30;91.10;;;;;;5031091;28;20098;-67
2022/04/20 06:29:58;;;;;;;6.70;4.10;;;8.40;90.30;;;;;;5032861;28;20068;-67
2022/04/20 06:32:24;;;;;;;7.40;4.05;;;8.50;90.60;;;;;;5032470;28;20037;-68
2022/04/20 06:34:53;;;;;;;6.05;3.78;;;8.70;89.40;;;;;;5032449;28;20457;-68
2022/04/20 06:37:19;;;;;;;7.07;4.13;;;8.70;88.70;;;;;;5014416;28;20053;-67
2022/04/20 06:39:49;;;;;;;5.90;3.38;;;8.90;86.80;;;;;;5033363;28;20049;-68
2022/04/20 06:42:15;;;;;;;3.60;3.13;;;9.10;85.80;;;;;;5029976;28;20075;-67
2022/04/20 06:44:41;;;;;;;4.15;2.85;;;9.20;84.70;;;;;;5029953;28;20053;-67
2022/04/20 06:47:07;;;;;;;4.03;3.20;;;9.30;84.30;;;;;;5031781;28;20041;-68
2022/04/20 06:49:33;;;;;;;3.85;2.72;;;9.40;83.00;;;;;;5031639;28;20045;-67
2022/04/20 07:00:12;;;;;;;4.45;2.55;;;9.90;76.80;;;;;;5029065;28;20048;-67
2022/04/20 07:02:37;;;;;;;4.40;2.38;;;10.20;76.50;;;;;;5031128;28;20369;-67
2022/04/20 07:05:05;;;;;;;6.00;2.40;;;10.50;75.40;;;;;;5032846;28;20037;-67
2022/04/20 07:07:30;;;;;;;5.00;2.55;;;10.70;72.90;;;;;;5027855;28;20057;-68
2022/04/20 07:09:56;;;;;;;3.50;2.65;;;10.80;73.20;;;;;;5032870;28;20041;-68
2022/04/20 07:12:22;;;;;;;6.28;2.85;;;10.90;73.20;;;;;;5031775;28;20785;-68
2022/04/20 07:14:48;;;;;;;6.35;3.05;;;11.20;72.60;;;;;;5032468;28;20054;-68
2022/04/20 07:17:13;;;;;;;6.78;2.78;;;11.50;72.70;;;;;;5030178;28;20075;-68
2022/04/20 07:19:39;;;;;;;8.30;2.90;;;11.80;71.50;;;;;;5031823;28;20564;-68
2022/04/20 07:22:05;;;;;;;5.82;2.85;;;11.80;69.40;;;;;;5032805;28;20041;-68
2022/04/20 07:24:31;;;;;;;4.65;2.80;;;12.10;70.40;;;;;;5032213;28;20421;-68
2022/04/20 07:26:57;;;;;;;5.57;3.10;;;12.50;70.00;;;;;;5032864;28;20060;-67
2022/04/20 07:29:22;;;;;;;5.25;2.80;;;12.60;66.40;;;;;;5030207;28;20043;-68
2022/04/20 07:31:48;;;;;;;6.15;2.58;;;12.80;67.10;;;;;;5031993;28;20045;-68
2022/04/20 07:34:14;;;;;;;6.07;2.65;;;13.30;67.90;;;;;;5031132;28;20038;-68
2022/04/20 07:36:39;;;;;;;3.67;2.40;;;13.60;64.70;;;;;;5029357;28;20583;-67
2022/04/20 07:39:05;;;;;;;5.10;2.58;;;14.00;64.20;;;;;;5032019;28;20042;-67
2022/04/20 07:41:31;;;;;;;6.00;2.72;;;14.00;63.20;;;;;;5030066;28;20405;-67
2022/04/20 07:43:56;;;;;;;5.20;3.10;;;13.80;64.20;;;;;;5030356;28;20413;-67
2022/04/20 07:46:22;;;;;;;4.68;3.00;;;13.80;63.50;;;;;;5030899;28;20056;-68
2022/04/20 07:48:48;;;;;;;3.60;2.55;;;13.70;62.80;;;;;;5013132;28;20049;-68
2022/04/20 07:51:14;;;;;;;5.82;2.50;;;13.80;64.00;;;;;;5030673;28;20048;-68
2022/04/20 07:53:40;;;;;;;3.47;2.72;;;13.90;62.80;;;;;;5028298;28;20064;-68
2022/04/20 07:56:06;;;;;;;4.22;2.92;;;14.20;63.10;;;;;;5030320;28;20041;-67
2022/04/20 07:58:32;;;;;;;4.13;2.70;;;14.60;62.20;;;;;;5027953;28;20037;-68
2022/04/20 08:00:57;;;;;;;3.97;2.22;;;15.20;59.30;;;;;;5030551;28;20033;-68
2022/04/20 08:03:24;;;;;;;4.47;2.17;;;15.20;58.00;;;;;;5011841;28;20061;-68
2022/04/20 08:05:51;;;;;;;4.13;2.33;;;15.30;56.70;;;;;;5031536;28;20045;-68
2022/04/20 08:08:16;;;;;;;4.53;2.30;;;15.90;58.50;;;;;;5030326;28;20060;-68
2022/04/20 08:10:42;;;;;;;4.72;1.80;;;15.60;52.40;;;;;;5028903;28;20049;-68
2022/04/20 08:15:54;;;;;;;2.58;2.00;;;15.90;54.60;;;;;;5028148;28;20139;-68
2022/04/20 08:18:21;;;;;;;2.75;1.95;;;16.20;53.50;;;;;;5029180;28;20160;-68
2022/04/20 08:20:47;;;;;;;3.50;1.90;;;16.40;52.50;;;;;;5031272;28;20064;-68
2022/04/20 08:23:13;;;;;;;3.92;2.17;;;16.70;53.20;;;;;;5031243;28;20520;-69
2022/04/20 08:25:42;;;;;;;3.60;2.03;;;16.40;52.30;;;;;;5029768;28;20175;-69
2022/04/20 08:28:09;;;;;;;3.60;1.98;;;16.80;52.80;;;;;;5031050;28;20087;-69
2022/04/20 08:30:36;;;;;;;4.57;2.30;;;16.80;50.90;;;;;;5029213;28;20037;-68
2022/04/20 08:33:06;;;;;;;4.60;2.03;;;16.60;51.70;;;;;;5027753;28;20450;-69
2022/04/20 08:35:32;;;;;;;2.22;1.30;;;16.90;52.20;;;;;;5029452;28;20045;-69
2022/04/20 08:37:58;;;;;;;3.33;2.20;;;17.10;51.20;;;;;;5029194;28;20485;-68
2022/04/20 08:40:25;;;;;;;3.15;2.00;;;17.00;50.10;;;;;;5030849;28;20041;-68
2022/04/20 08:42:52;;;;;;;2.22;1.60;;;16.90;50.30;;;;;;5030613;28;20029;-69
2022/04/20 08:45:19;;;;;;;4.18;1.55;;;16.90;49.50;;;;;;5031054;28;20033;-68
2022/04/20 08:47:48;;;;;;;4.13;1.70;;;17.30;50.80;;;;;;5029331;28;20448;-69
2022/04/20 08:50:14;;;;;;;2.22;1.55;;;17.50;49.00;;;;;;5031074;28;20041;-69
2022/04/20 08:52:42;;;;;;;2.65;1.60;;;17.40;48.30;;;;;;5028753;28;20053;-68
2022/04/20 08:55:15;;;;;;;2.00;1.20;;;17.50;49.40;;;;;;5029319;28;20041;-68
2022/04/20 08:57:43;;;;;;;2.72;1.50;;;17.70;44.90;;;;;;5028872;28;20157;-68
2022/04/20 09:00:21;;;;;;;2.38;1.15;;;17.40;45.00;;;;;;5027839;28;20187;-68
2022/04/20 09:02:50;;;;;;;2.40;1.33;;;16.90;44.90;;;;;;5024749;28;20059;-68
2022/04/20 09:05:15;;;;;;;4.15;1.35;;;17.20;46.70;;;;;;5028447;28;20053;-68
2022/04/20 09:07:41;;;;;;;2.33;1.60;;;17.20;45.50;;;;;;5030247;28;20056;-68
2022/04/20 09:10:07;;;;;;;2.40;1.55;;;17.20;45.10;;;;;;5029497;28;20396;-68
2022/04/20 09:12:33;;;;;;;3.55;1.50;;;17.30;45.60;;;;;;5030178;28;20052;-68
2022/04/20 09:15:00;;;;;;;3.53;1.50;;;17.90;46.30;;;;;;5030733;28;20037;-68
2022/04/20 09:17:26;;;;;;;2.70;0.90;;;18.10;44.40;;;;;;5030392;28;20120;-69
2022/04/20 09:19:56;;;;;;;1.85;1.08;;;18.30;42.10;;;;;;5027204;28;20045;-69
2022/04/20 09:22:23;;;;;;;2.13;1.02;;;18.50;42.90;;;;;;5029843;28;20501;-69
2022/04/20 09:25:14;;;;;;;3.55;0.73;;;18.40;42.30;;;;;;5030150;28;20033;-69
2022/04/20 09:27:42;;;;;;;2.00;1.02;;;18.60;41.50;;;;;;5027847;28;20512;-68
2022/04/20 09:30:16;;;;;;;2.20;1.30;;;18.90;41.30;;;;;;5029463;28;20040;-68
2022/04/20 09:32:47;;;;;;;1.50;0.85;;;18.60;40.00;;;;;;5028130;28;20049;-69
2022/04/20 09:35:18;;;;;;;2.50;0.85;;;18.60;41.50;;;;;;5028086;28;20053;-69
2022/04/20 09:37:45;;;;;;;2.42;1.00;;;18.70;39.70;;;;;;5011939;28;20061;-69
2022/04/20 09:40:13;;;;;;;1.88;0.98;;;18.30;39.80;;;;;;5030066;28;20043;-68
2022/04/20 09:43:04;;;;;;;2.28;0.90;;;18.40;39.80;;;;;;5030229;28;20095;-69
2022/04/20 09:45:30;;;;;;;3.88;0.95;;;18.60;40.60;;;;;;5029895;28;20034;-69
2022/04/20 09:50:42;;;;;;;1.85;0.82;;;18.20;38.70;;;;;;5027323;28;20049;-69
2022/04/20 09:53:12;;;;;;;1.58;0.65;;;18.20;36.30;;;;;;5012203;28;20071;-68
2022/04/20 09:55:44;;;;;;;2.20;0.80;;;18.00;38.50;;;;;;5023790;28;20061;-69
2022/04/20 09:58:10;;;;;;;2.10;0.73;;;18.20;38.40;;;;;;5028537;28;20489;-68
2022/04/20 10:00:50;;;;;;;1.75;0.90;;;18.20;37.90;;;;;;5027711;28;20052;-68
2022/04/20 10:03:24;;;;;;;2.35;0.98;;;18.50;39.60;;;;;;5027784;28;20533;-68
2022/04/20 10:05:50;;;;;;;2.30;0.68;;;18.60;38.80;;;;;;5027388;28;20114;-68
2022/04/20 10:08:17;;;;;;;2.53;0.80;;;18.70;38.70;;;;;;5029930;28;20400;-68
2022/04/20 10:10:44;;;;;;;3.33;1.10;;;18.90;38.40;;;;;;5030157;28;20045;-69
2022/04/20 10:13:11;;;;;;;3.88;1.10;;;18.80;37.80;;;;;;5029717;28;20124;-68
2022/04/20 10:18:26;;;;;;;1.85;0.70;;;18.80;36.60;;;;;;5027606;28;20156;-69
2022/04/20 10:20:57;;;;;;;2.83;0.70;;;18.80;36.50;;;;;;5030525;28;20048;-69
2022/04/20 10:23:24;;;;;;;3.70;0.82;;;18.50;36.10;;;;;;5030580;28;20048;-69
2022/04/20 10:25:52;;;;;;;2.63;0.85;;;18.40;35.50;;;;;;5029108;28;20089;-69
2022/04/20 10:28:27;;;;;;;1.75;0.55;;;17.90;36.10;;;;;;5030785;28;20493;-69
2022/04/20 10:31:14;;;;;;;3.28;0.73;;;18.00;38.90;;;;;;5029423;28;20215;-69
2022/04/20 10:33:42;;;;;;;2.08;0.70;;;18.20;37.40;;;;;;5030683;28;20064;-68
2022/04/20 10:36:14;;;;;;;2.20;0.90;;;18.20;37.90;;;;;;5033665;28;20041;-69
2022/04/20 10:38:40;;;;;;;1.65;0.77;;;18.30;37.60;;;;;;5033477;28;20056;-69
2022/04/20 10:41:19;;;;;;;3.28;1.02;;;18.20;38.60;;;;;;5032078;28;20037;-68
2022/04/20 10:43:46;;;;;;;3.03;0.98;;;18.70;39.80;;;;;;5031954;28;20478;-68
2022/04/20 10:46:20;;;;;;;3.15;1.35;;;18.70;38.40;;;;;;5032590;28;20030;-68
2022/04/20 10:49:02;;;;;;;1.67;1.02;;;18.90;38.70;;;;;;5033652;28;20037;-69
2022/04/20 10:51:32;;;;;;;2.88;0.95;;;18.60;38.30;;;;;;5032397;28;20045;-69
2022/04/20 10:54:24;;;;;;;2.45;1.00;;;18.70;39.30;;;;;;5033331;28;20090;-69
2022/04/20 10:56:50;;;;;;;3.38;0.90;;;18.70;37.80;;;;;;5032534;28;20940;-70
2022/04/20 10:59:17;;;;;;;2.20;1.05;;;18.70;40.10;;;;;;5030511;28;20132;-71
2022/04/20 11:01:58;;;;;;;2.08;1.00;;;18.60;38.70;;;;;;5032102;28;20111;-70
2022/04/20 11:04:42;;;;;;;3.38;1.10;;;18.90;39.70;;;;;;5032988;28;20049;-69
2022/04/20 11:07:07;;;;;;;4.53;1.08;;;19.10;38.40;;;;;;5032646;28;20367;-68
2022/04/20 11:09:42;;;;;;;2.05;0.82;;;19.10;39.20;;;;;;5033317;28;20156;-69
2022/04/20 11:21:12;;;;;;;2.58;0.95;;;18.40;38.90;;;;;;5031229;28;20013;-69
2022/04/20 11:24:01;;;;;;;2.58;0.88;;;18.70;37.20;;;;;;5032255;28;20080;-69
2022/04/20 11:26:48;;;;;;;3.10;0.88;;;19.00;38.60;;;;;;5026877;28;20756;-69
2022/04/20 11:29:18;;;;;;;1.25;0.70;;;18.90;37.60;;;;;;5028845;28;20132;-68
2022/04/20 11:31:48;;;;;;;1.70;1.00;;;19.20;37.00;;;;;;5031495;28;20084;-69
2022/04/20 11:34:16;;;;;;;1.80;0.82;;;19.10;37.00;;;;;;5031086;28;20465;-69
2022/04/20 11:36:47;;;;;;;3.22;1.02;;;19.40;37.80;;;;;;5030065;28;20061;-69
2022/04/20 11:39:16;;;;;;;2.63;0.60;;;19.70;36.90;;;;;;5029518;28;20076;-69
2022/04/20 11:41:54;;;;;;;2.85;0.70;;;20.00;38.40;;;;;;5030635;28;20057;-70
2022/04/20 11:44:21;;;;;;;1.10;0.70;;;20.30;36.60;;;;;;5030888;28;20053;-69
2022/04/20 11:46:52;;;;;;;1.92;1.00;;;20.20;36.30;;;;;;5030012;28;20126;-69
2022/04/20 11:49:18;;;;;;;3.35;0.77;;;20.30;36.60;;;;;;5031177;28;20045;-68
2022/04/20 11:51:58;;;;;;;1.30;0.80;;;20.20;36.10;;;;;;5031763;28;20052;-69
2022/04/20 11:54:25;;;;;;;2.78;1.00;;;20.10;35.30;;;;;;5029952;28;20566;-69
2022/04/20 11:56:51;;;;;;;2.72;0.93;;;20.40;36.50;;;;;;5031454;28;20045;-69
2022/04/20 11:59:18;;;;;;;1.45;0.77;;;20.80;36.40;;;;;;5029761;28;20128;-69
2022/04/20 12:01:44;;;;;;;2.95;0.75;;;20.80;34.40;;;;;;5031391;28;20404;-69
2022/04/20 12:04:20;;;;;;;1.75;0.77;;;20.90;35.10;;;;;;5030785;28;20029;-69
2022/04/20 12:07:00;;;;;;;1.25;0.50;;;20.40;33.30;;;;;;5031080;28;20323;-69
2022/04/20 12:09:31;;;;;;;2.65;0.80;;;20.60;34.40;;;;;;5029503;28;20045;-69
2022/04/20 12:11:59;;;;;;;3.25;0.63;;;20.60;35.50;;;;;;5031708;28;20050;-69
2022/04/20 12:14:38;;;;;;;1.85;0.77;;;20.80;34.70;;;;;;5027337;28;20103;-70
2022/04/20 12:17:22;;;;;;;3.60;0.70;;;20.80;34.20;;;;;;5029940;28;20041;-70
2022/04/20 12:19:49;;;;;;;2.88;0.90;;;20.70;35.00;;;;;;5029991;28;20115;-69
2022/04/20 12:22:17;;;;;;;1.17;0.55;;;20.80;35.00;;;;;;5031799;28;20037;-67
2022/04/20 12:24:43;;;;;;;4.00;0.63;;;20.60;34.00;;;;;;5030487;28;20076;-73
2022/04/20 12:27:19;;;;;;;10.13;1.88;;;20.30;34.70;;;;;;5023462;28;20104;-69
2022/04/20 12:29:55;;;;;;;2.65;0.85;;;20.40;33.90;;;;;;5042234;28;20064;-69
2022/04/20 12:32:41;;;;;;;1.50;0.60;;;20.70;33.80;;;;;;5030944;28;20072;-68
2022/04/20 12:35:07;;;;;;;2.38;0.70;;;21.00;35.00;;;;;;5029667;28;20580;-69
2022/04/20 12:37:33;;;;;;;3.80;0.43;;;20.80;33.20;;;;;;5029250;28;20054;-67
2022/04/20 12:40:24;;;;;;;2.80;0.50;;;21.20;33.90;;;;;;5031159;28;20422;-70
2022/04/20 12:43:05;;;;;;;3.58;0.73;;;21.60;31.90;;;;;;5024960;28;20064;-70
2022/04/20 12:45:32;;;;;;;3.30;0.47;;;21.40;32.60;;;;;;5030234;28;20061;-70
2022/04/20 12:48:16;;;;;;;7.70;0.68;;;21.10;32.40;;;;;;5028387;28;20085;-69
2022/04/20 12:50:43;;;;;;;1.63;0.43;;;20.80;33.10;;;;;;5029200;28;20041;-68
2022/04/20 12:53:09;;;;;;;3.83;0.75;;;20.90;32.80;;;;;;5019071;28;20112;-69
2022/04/20 13:02:01;;;;;;;2.75;0.70;;;20.80;33.70;;;;;;5029210;28;20150;-68
2022/04/20 13:04:12;;;;;;;3.08;0.57;;;21.00;33.30;;;;;;5028681;28;20055;-68
2022/04/20 13:06:38;;;;;;;1.77;0.57;;;21.20;34.60;;;;;;5028475;28;20128;-70
2022/04/20 13:09:04;;;;;;;5.60;0.90;;;21.20;33.70;;;;;;5026262;28;20408;-68
2022/04/20 13:11:30;;;;;;;2.17;0.60;;;21.00;33.40;;;;;;5029467;28;20521;-73
2022/04/20 13:13:59;;;;;;;1.67;0.60;;;20.80;33.70;;;;;;5029340;28;20072;-69
2022/04/20 13:16:25;;;;;;;0.93;0.55;;;20.70;34.00;;;;;;5025188;28;20042;-68
2022/04/20 13:18:51;;;;;;;2.97;0.43;;;20.80;35.70;;;;;;5025038;28;20047;-69
2022/04/20 13:21:17;;;;;;;2.17;0.60;;;20.90;34.50;;;;;;5027838;28;20033;-68
2022/04/20 13:23:42;;;;;;;2.72;0.75;;;20.70;34.90;;;;;;5025249;28;20057;-67
2022/04/20 13:28:54;;;;;;;23.33;2.78;;;20.60;34.80;;;;;;5026682;28;20147;-67
2022/04/20 13:31:20;;;;;;;1.92;0.60;;;20.30;36.20;;;;;;5022172;28;20029;-68
2022/04/20 13:33:46;;;;;;;2.17;0.85;;;20.00;35.60;;;;;;5026509;28;20110;-68
2022/04/20 13:36:13;;;;;;;2.97;1.20;;;19.70;36.50;;;;;;5029076;28;20077;-68
2022/04/20 13:38:39;;;;;;;2.45;0.90;;;19.30;36.50;;;;;;5028139;28;20072;-68